Time;durP1;ratioP1;P1;durP2;ratioP2;P2;SDS_P1;SDS_P2;PMS_P1;PMS_P2;Temp;Humidity;BMP_temperature;BMP_pressure;BME280_temperature;BME280_humidity;BME280_pressure;Samples;Min_cycle;Max_cycle;Signal;HPM_P1;HPM_P2
2023/08/16 00:01:10;;;;;;;45.00;42.63;;;20.50;99.90;;;;;;5013938;28;20041;-76
2023/08/16 00:03:37;;;;;;;37.97;35.67;;;20.60;99.90;;;;;;5014701;28;20034;-77
2023/08/16 00:06:13;;;;;;;27.60;25.75;;;20.50;99.90;;;;;;5014270;28;20038;-76
2023/08/16 00:08:39;;;;;;;16.50;15.50;;;20.50;99.90;;;;;;5014396;28;20038;-77
2023/08/16 00:11:05;;;;;;;19.10;18.00;;;20.60;99.90;;;;;;5013852;28;20459;-76
2023/08/16 00:13:32;;;;;;;15.80;14.90;;;20.60;99.90;;;;;;5014546;28;20049;-77
2023/08/16 00:15:59;;;;;;;15.98;14.65;;;20.60;99.90;;;;;;5013379;28;20030;-76
2023/08/16 00:18:25;;;;;;;15.68;14.68;;;20.70;99.90;;;;;;5014066;28;20029;-76
2023/08/16 00:20:51;;;;;;;16.20;15.30;;;20.60;99.90;;;;;;5014158;28;20034;-76
2023/08/16 00:23:17;;;;;;;21.02;19.63;;;20.60;99.90;;;;;;5013953;28;20038;-77
2023/08/16 00:25:43;;;;;;;18.05;16.95;;;20.60;99.90;;;;;;5013610;28;20044;-76
2023/08/16 00:28:09;;;;;;;20.52;19.13;;;20.60;99.90;;;;;;5014023;28;20387;-77
2023/08/16 00:30:36;;;;;;;18.45;17.35;;;20.60;99.90;;;;;;5013298;28;20040;-76
2023/08/16 00:33:02;;;;;;;17.20;16.00;;;20.60;99.90;;;;;;5013877;28;20045;-77
2023/08/16 00:35:28;;;;;;;17.10;15.90;;;20.60;99.90;;;;;;5013762;28;20029;-77
2023/08/16 00:37:58;;;;;;;17.40;16.15;;;20.60;99.90;;;;;;5013953;28;20038;-77
2023/08/16 00:40:24;;;;;;;17.48;16.48;;;20.50;99.90;;;;;;5013459;28;20022;-76
2023/08/16 00:42:50;;;;;;;20.25;19.00;;;20.40;99.90;;;;;;5013856;28;20391;-77
2023/08/16 00:45:16;;;;;;;23.48;22.10;;;20.30;99.90;;;;;;5013503;28;20360;-77
2023/08/16 00:47:42;;;;;;;22.70;21.33;;;20.40;99.90;;;;;;5012522;28;20030;-77
2023/08/16 00:50:09;;;;;;;19.48;18.13;;;20.30;99.90;;;;;;5012331;28;20037;-77
2023/08/16 00:52:35;;;;;;;15.30;14.40;;;20.40;99.90;;;;;;4992819;28;20479;-76
2023/08/16 00:55:02;;;;;;;19.38;18.17;;;20.40;99.90;;;;;;4993690;28;20035;-76
2023/08/16 00:57:29;;;;;;;24.05;22.45;;;20.40;99.90;;;;;;5011360;28;20036;-77
2023/08/16 00:59:55;;;;;;;18.15;16.88;;;20.40;99.90;;;;;;5012401;28;20037;-77
2023/08/16 01:02:23;;;;;;;19.38;18.17;;;20.40;99.90;;;;;;5012686;28;20042;-76
2023/08/16 01:04:49;;;;;;;16.00;14.85;;;20.40;99.90;;;;;;5013422;28;20034;-76
2023/08/16 01:07:15;;;;;;;16.83;15.82;;;20.40;99.90;;;;;;5012982;28;20042;-76
2023/08/16 01:09:42;;;;;;;33.33;31.58;;;20.30;99.90;;;;;;5013166;28;20372;-76
2023/08/16 01:12:26;;;;;;;18.92;17.63;;;20.40;99.90;;;;;;5012941;28;20022;-77
2023/08/16 01:15:16;;;;;;;23.15;21.75;;;20.40;99.90;;;;;;5013251;28;20041;-76
2023/08/16 01:17:43;;;;;;;19.63;18.48;;;20.40;99.90;;;;;;4991789;28;20511;-77
2023/08/16 01:20:09;;;;;;;20.88;19.75;;;20.40;99.90;;;;;;4993466;28;20026;-77
2023/08/16 01:22:56;;;;;;;27.60;26.02;;;20.40;99.90;;;;;;5012077;28;20038;-77
2023/08/16 01:25:28;;;;;;;24.20;22.73;;;20.30;99.90;;;;;;5012776;28;20029;-76
2023/08/16 01:27:54;;;;;;;29.45;27.85;;;20.40;99.90;;;;;;5012907;28;20026;-77
2023/08/16 01:30:21;;;;;;;19.27;18.10;;;20.20;99.90;;;;;;5010628;28;20038;-76
2023/08/16 01:32:47;;;;;;;14.27;13.23;;;20.10;99.90;;;;;;4992345;28;20034;-77
2023/08/16 01:35:16;;;;;;;14.30;13.43;;;20.00;99.90;;;;;;4992616;28;20095;-76
2023/08/16 01:37:43;;;;;;;47.55;45.20;;;19.90;99.90;;;;;;5011308;28;20034;-77
2023/08/16 01:40:09;;;;;;;43.88;41.47;;;20.00;99.90;;;;;;5011532;28;20029;-77
2023/08/16 01:42:43;;;;;;;27.13;25.63;;;20.10;99.90;;;;;;4976135;28;20046;-77
2023/08/16 01:45:09;;;;;;;19.58;18.50;;;20.10;99.90;;;;;;4991452;28;20027;-77
2023/08/16 01:47:36;;;;;;;16.90;15.93;;;20.20;99.90;;;;;;5011632;28;20049;-77
2023/08/16 01:50:02;;;;;;;17.17;16.15;;;20.10;99.90;;;;;;5011407;28;20034;-77
2023/08/16 01:52:28;;;;;;;20.25;18.88;;;20.10;99.90;;;;;;5010896;28;20072;-77
2023/08/16 01:54:55;;;;;;;20.88;19.73;;;20.10;99.90;;;;;;5011683;28;20045;-77
2023/08/16 01:57:21;;;;;;;16.58;15.32;;;20.20;99.90;;;;;;5011730;28;20364;-77
2023/08/16 01:59:47;;;;;;;14.48;13.38;;;20.20;99.90;;;;;;5009800;28;20033;-77
2023/08/16 02:02:13;;;;;;;13.80;12.68;;;20.20;99.90;;;;;;5005950;28;20440;-77
2023/08/16 02:04:39;;;;;;;13.85;12.95;;;20.20;99.90;;;;;;5010904;28;20037;-77
2023/08/16 02:07:05;;;;;;;15.57;14.45;;;20.00;99.90;;;;;;5009505;28;20510;-77
2023/08/16 02:09:31;;;;;;;15.65;14.55;;;19.90;99.90;;;;;;5011344;28;20045;-77
2023/08/16 02:11:57;;;;;;;18.55;17.05;;;20.00;99.90;;;;;;5009780;28;20418;-77
2023/08/16 02:14:24;;;;;;;17.00;16.10;;;19.90;99.90;;;;;;5011113;28;20034;-76
2023/08/16 02:16:50;;;;;;;16.25;15.05;;;19.80;99.90;;;;;;5010466;28;20411;-76
2023/08/16 02:19:16;;;;;;;16.48;15.27;;;19.80;99.90;;;;;;5011230;28;20034;-76
2023/08/16 02:21:43;;;;;;;16.77;15.68;;;19.60;99.90;;;;;;5010592;28;20387;-76
2023/08/16 02:24:09;;;;;;;19.05;17.85;;;19.60;99.90;;;;;;5011223;28;20037;-77
2023/08/16 02:26:35;;;;;;;16.73;15.55;;;19.60;99.90;;;;;;5010801;28;20459;-77
2023/08/16 02:29:01;;;;;;;17.15;16.13;;;19.70;99.90;;;;;;5011083;28;20048;-76
2023/08/16 02:31:27;;;;;;;16.02;15.07;;;19.70;99.90;;;;;;5010119;28;20490;-76
2023/08/16 02:33:53;;;;;;;19.10;17.98;;;19.70;99.90;;;;;;5011208;28;20045;-76
2023/08/16 02:36:19;;;;;;;16.85;15.38;;;19.80;99.90;;;;;;5010520;28;20060;-77
2023/08/16 02:38:45;;;;;;;16.75;15.77;;;19.80;99.90;;;;;;5012276;28;20030;-77
2023/08/16 02:41:11;;;;;;;15.93;14.90;;;19.80;99.90;;;;;;5012066;28;20053;-77
2023/08/16 02:43:37;;;;;;;17.88;16.77;;;19.80;99.90;;;;;;5015359;28;20025;-77
2023/08/16 02:46:03;;;;;;;23.70;22.10;;;19.80;99.90;;;;;;5015389;28;20065;-76
2023/08/16 02:48:30;;;;;;;19.45;18.25;;;19.80;99.90;;;;;;5015986;28;20041;-77
2023/08/16 02:50:56;;;;;;;19.48;18.23;;;19.80;99.90;;;;;;5015408;28;20414;-77
2023/08/16 02:53:22;;;;;;;23.10;21.70;;;19.80;99.90;;;;;;5015693;28;20042;-77
2023/08/16 02:55:48;;;;;;;24.58;23.00;;;19.80;99.90;;;;;;5015649;28;20033;-77
2023/08/16 02:58:14;;;;;;;29.20;27.25;;;19.80;99.90;;;;;;5015839;28;20029;-77
2023/08/16 03:00:40;;;;;;;23.98;22.55;;;19.70;99.90;;;;;;5015129;28;20048;-77
2023/08/16 03:03:06;;;;;;;34.65;32.75;;;19.70;99.90;;;;;;5015636;28;20035;-76
2023/08/16 03:05:32;;;;;;;23.13;21.70;;;19.70;99.90;;;;;;5013990;28;20038;-77
2023/08/16 03:07:58;;;;;;;27.05;25.25;;;19.80;99.90;;;;;;5015571;28;20490;-77
2023/08/16 03:10:24;;;;;;;29.27;27.52;;;19.70;99.90;;;;;;5015470;28;20046;-77
2023/08/16 03:12:50;;;;;;;22.08;20.55;;;19.60;99.90;;;;;;5015791;28;20387;-76
2023/08/16 03:15:16;;;;;;;25.65;23.83;;;19.70;99.90;;;;;;5014945;28;20026;-77
2023/08/16 03:17:43;;;;;;;23.48;22.17;;;19.80;99.90;;;;;;5015445;28;20459;-76
2023/08/16 03:20:09;;;;;;;25.45;23.85;;;19.90;99.90;;;;;;5015130;28;20030;-77
2023/08/16 03:22:35;;;;;;;26.38;24.85;;;19.80;99.90;;;;;;5014375;28;20034;-77
2023/08/16 03:25:01;;;;;;;23.77;22.38;;;19.60;99.90;;;;;;5015940;28;20030;-76
2023/08/16 03:27:28;;;;;;;22.08;20.67;;;19.60;99.90;;;;;;5015311;28;20049;-76
2023/08/16 03:29:54;;;;;;;25.17;23.55;;;19.70;99.90;;;;;;5015086;28;20034;-77
2023/08/16 03:32:20;;;;;;;29.02;27.30;;;19.70;99.90;;;;;;5014567;28;20049;-76
2023/08/16 03:34:46;;;;;;;32.30;30.45;;;19.80;99.90;;;;;;5014984;28;20038;-77
2023/08/16 03:37:12;;;;;;;31.33;29.67;;;19.70;99.90;;;;;;5014809;28;20489;-76
2023/08/16 03:39:38;;;;;;;21.02;19.70;;;19.60;99.90;;;;;;5013973;28;20034;-77
2023/08/16 03:42:05;;;;;;;20.65;19.45;;;19.50;99.90;;;;;;5014709;28;20486;-77
2023/08/16 03:44:31;;;;;;;20.98;19.77;;;19.40;99.90;;;;;;5014920;28;20046;-77
2023/08/16 03:46:57;;;;;;;21.65;20.20;;;19.20;99.90;;;;;;5014432;28;20043;-75
2023/08/16 03:49:23;;;;;;;21.05;19.55;;;19.20;99.90;;;;;;5014667;28;20050;-76
2023/08/16 03:51:50;;;;;;;20.20;18.75;;;19.20;99.90;;;;;;5014464;28;20055;-77
2023/08/16 03:54:16;;;;;;;19.85;18.63;;;19.30;99.90;;;;;;5013175;28;20033;-77
2023/08/16 03:56:42;;;;;;;18.38;17.17;;;19.40;99.90;;;;;;5014344;28;20375;-77
2023/08/16 03:59:08;;;;;;;18.05;16.85;;;19.40;99.90;;;;;;5014584;28;20037;-76
2023/08/16 04:01:34;;;;;;;18.85;17.35;;;19.40;99.90;;;;;;5013975;28;20394;-77
2023/08/16 04:04:01;;;;;;;19.48;18.27;;;19.50;99.90;;;;;;5014094;28;20091;-77
2023/08/16 04:06:27;;;;;;;22.75;21.45;;;19.50;99.90;;;;;;5012686;28;20391;-76
2023/08/16 04:08:53;;;;;;;20.83;19.63;;;19.40;99.90;;;;;;5014467;28;20030;-77
2023/08/16 04:11:19;;;;;;;22.42;20.75;;;19.50;99.90;;;;;;5014450;28;20060;-76
2023/08/16 04:13:45;;;;;;;19.73;18.30;;;19.50;99.90;;;;;;5014287;28;20078;-76
2023/08/16 04:16:11;;;;;;;23.60;22.23;;;19.40;99.90;;;;;;5013658;28;20064;-76
2023/08/16 04:18:37;;;;;;;24.27;22.67;;;19.30;99.90;;;;;;5014096;28;20026;-76
2023/08/16 04:21:03;;;;;;;20.33;19.13;;;19.20;99.90;;;;;;5013936;28;20045;-77
2023/08/16 04:23:29;;;;;;;21.95;20.50;;;19.20;99.90;;;;;;5014196;28;20030;-78
2023/08/16 04:25:55;;;;;;;17.27;16.13;;;19.00;99.90;;;;;;5013766;28;20034;-77
2023/08/16 04:28:21;;;;;;;17.70;16.60;;;19.00;99.90;;;;;;5014060;28;20037;-77
2023/08/16 04:30:47;;;;;;;17.02;15.65;;;18.90;99.90;;;;;;5013251;28;20042;-78
2023/08/16 04:33:13;;;;;;;16.80;15.70;;;18.80;99.90;;;;;;5012527;28;20038;-77
2023/08/16 04:35:40;;;;;;;17.17;16.17;;;18.80;99.90;;;;;;5013935;28;20487;-76
2023/08/16 04:38:06;;;;;;;18.52;17.15;;;18.70;99.90;;;;;;5013962;28;20026;-77
2023/08/16 04:40:32;;;;;;;17.67;16.50;;;18.70;99.90;;;;;;5013684;28;20029;-77
2023/08/16 04:42:58;;;;;;;18.98;17.67;;;18.60;99.90;;;;;;5014154;28;20487;-76
2023/08/16 04:45:24;;;;;;;22.60;20.98;;;18.70;99.90;;;;;;5013239;28;20030;-77
2023/08/16 04:47:50;;;;;;;24.60;23.00;;;18.60;99.90;;;;;;5013139;28;20040;-76
2023/08/16 04:50:16;;;;;;;24.45;22.88;;;18.70;99.90;;;;;;5013470;28;20034;-76
2023/08/16 04:52:42;;;;;;;28.10;26.00;;;18.70;99.90;;;;;;5013379;28;20509;-77
2023/08/16 04:55:08;;;;;;;30.23;28.13;;;18.70;99.90;;;;;;5013655;28;20037;-77
2023/08/16 04:57:34;;;;;;;35.10;33.10;;;18.80;99.90;;;;;;5013206;28;20498;-77
2023/08/16 05:00:04;;;;;;;43.92;41.30;;;18.70;99.90;;;;;;5013601;28;20041;-77
2023/08/16 05:02:31;;;;;;;35.85;33.75;;;18.70;99.90;;;;;;5011671;28;20065;-77
2023/08/16 05:04:57;;;;;;;36.53;34.60;;;18.80;99.90;;;;;;5012657;28;20482;-77
2023/08/16 05:07:23;;;;;;;31.27;29.35;;;18.80;99.90;;;;;;5013162;28;20030;-77
2023/08/16 05:09:49;;;;;;;35.75;33.78;;;18.70;99.90;;;;;;5013466;28;20556;-77
2023/08/16 05:12:15;;;;;;;23.25;21.58;;;18.70;99.90;;;;;;5012141;28;20034;-77
2023/08/16 05:14:42;;;;;;;22.38;20.88;;;18.70;99.90;;;;;;5013336;28;20390;-76
2023/08/16 05:17:08;;;;;;;33.22;31.10;;;18.80;99.90;;;;;;5012706;28;20038;-76
2023/08/16 05:19:34;;;;;;;23.88;22.40;;;18.90;99.90;;;;;;5013697;28;20042;-76
2023/08/16 05:22:00;;;;;;;19.65;18.45;;;18.90;99.90;;;;;;5012941;28;20045;-77
2023/08/16 05:24:26;;;;;;;22.85;21.45;;;18.90;99.90;;;;;;5013206;28;20030;-76
2023/08/16 05:26:52;;;;;;;22.08;20.58;;;18.90;99.90;;;;;;5012762;28;20044;-77
2023/08/16 05:29:19;;;;;;;26.23;24.55;;;18.70;99.90;;;;;;5012737;28;20065;-76
2023/08/16 05:31:45;;;;;;;25.05;23.65;;;18.70;99.90;;;;;;5012403;28;20038;-77
2023/08/16 05:34:11;;;;;;;28.77;27.10;;;18.80;99.90;;;;;;5013070;28;20037;-76
2023/08/16 05:36:45;;;;;;;23.83;22.33;;;18.80;99.90;;;;;;5012734;28;20034;-76
2023/08/16 05:39:12;;;;;;;23.48;21.95;;;18.70;99.90;;;;;;5012924;28;20034;-76
2023/08/16 05:41:38;;;;;;;19.60;18.38;;;18.80;99.90;;;;;;5011646;28;20463;-77
2023/08/16 05:44:04;;;;;;;16.35;15.40;;;18.80;99.90;;;;;;5011419;28;20087;-76
2023/08/16 05:46:30;;;;;;;20.38;18.90;;;18.90;99.90;;;;;;5012162;28;20037;-77
2023/08/16 05:48:56;;;;;;;18.00;16.83;;;18.70;99.90;;;;;;5012869;28;20033;-76
2023/08/16 05:51:23;;;;;;;17.90;16.63;;;18.80;99.90;;;;;;5012076;28;20037;-76
2023/08/16 05:53:49;;;;;;;37.10;34.95;;;18.90;99.90;;;;;;5012797;28;20034;-77
2023/08/16 05:56:15;;;;;;;41.83;39.67;;;19.00;99.90;;;;;;5012627;28;20038;-76
2023/08/16 05:58:41;;;;;;;31.50;29.63;;;19.10;99.90;;;;;;5012442;28;20034;-77
2023/08/16 06:01:07;;;;;;;47.10;44.17;;;18.90;99.90;;;;;;5011874;28;20048;-76
2023/08/16 06:03:33;;;;;;;33.38;31.63;;;18.80;99.90;;;;;;5012555;28;20030;-77
2023/08/16 06:05:59;;;;;;;34.38;32.08;;;18.80;99.90;;;;;;5012344;28;20033;-77
2023/08/16 06:08:25;;;;;;;28.00;26.35;;;18.90;99.90;;;;;;5012613;28;20033;-76
2023/08/16 06:10:51;;;;;;;28.35;26.65;;;18.90;99.90;;;;;;5012311;28;20038;-77
2023/08/16 06:13:17;;;;;;;17.15;16.13;;;19.00;99.90;;;;;;5012195;28;20026;-76
2023/08/16 06:15:43;;;;;;;22.08;20.35;;;18.90;99.90;;;;;;5011809;28;20034;-77
2023/08/16 06:18:09;;;;;;;20.55;19.23;;;18.90;99.90;;;;;;5016631;28;20033;-76
2023/08/16 06:20:36;;;;;;;17.92;16.73;;;18.90;99.90;;;;;;5016328;28;20038;-76
2023/08/16 06:23:02;;;;;;;17.60;16.38;;;18.80;99.90;;;;;;5016582;28;20455;-76
2023/08/16 06:25:29;;;;;;;21.13;19.60;;;18.90;99.90;;;;;;5016161;28;20040;-77
2023/08/16 06:27:55;;;;;;;22.90;21.35;;;18.90;99.90;;;;;;5016416;28;20042;-77
2023/08/16 06:30:21;;;;;;;18.60;16.90;;;19.00;99.90;;;;;;5015559;28;20037;-76
2023/08/16 06:32:47;;;;;;;10.25;9.45;;;19.00;99.90;;;;;;5016302;28;20420;-76
2023/08/16 06:35:13;;;;;;;10.30;9.50;;;19.00;99.90;;;;;;5016233;28;20125;-76
2023/08/16 06:37:39;;;;;;;15.70;10.98;;;19.00;99.90;;;;;;5016334;28;20110;-76
2023/08/16 06:40:06;;;;;;;15.30;13.93;;;18.90;99.90;;;;;;5016084;28;20043;-76
2023/08/16 06:42:32;;;;;;;26.25;24.63;;;19.00;99.90;;;;;;5014197;28;20041;-77
2023/08/16 06:44:59;;;;;;;13.10;12.00;;;19.10;99.90;;;;;;5016273;28;20030;-77
2023/08/16 06:47:25;;;;;;;16.85;15.20;;;19.20;99.90;;;;;;5015403;28;20041;-77
2023/08/16 06:49:52;;;;;;;13.15;12.20;;;19.10;99.90;;;;;;5014382;28;20498;-77
2023/08/16 06:52:18;;;;;;;18.08;16.95;;;19.10;99.90;;;;;;5015573;28;20399;-77
2023/08/16 06:54:44;;;;;;;14.25;13.35;;;19.10;99.90;;;;;;5015851;28;20026;-77
2023/08/16 06:57:11;;;;;;;25.77;24.17;;;19.20;99.90;;;;;;5015231;28;20379;-76
2023/08/16 06:59:38;;;;;;;30.33;28.63;;;19.30;99.90;;;;;;4996668;28;20379;-76
2023/08/16 07:02:04;;;;;;;25.95;24.40;;;19.40;99.90;;;;;;5011348;28;20076;-76
2023/08/16 07:04:33;;;;;;;25.10;23.50;;;19.50;99.90;;;;;;5015573;28;20037;-76
2023/08/16 07:06:59;;;;;;;31.17;29.35;;;19.50;99.90;;;;;;5015545;28;20367;-76
2023/08/16 07:09:25;;;;;;;29.40;27.67;;;19.50;99.90;;;;;;5015459;28;20037;-76
2023/08/16 07:11:51;;;;;;;26.63;25.00;;;19.50;99.90;;;;;;5013307;28;20049;-77
2023/08/16 07:14:17;;;;;;;24.90;23.25;;;19.60;99.90;;;;;;5015612;28;20030;-76
2023/08/16 07:16:43;;;;;;;20.73;19.30;;;19.50;99.90;;;;;;5014761;28;20053;-77
2023/08/16 07:19:09;;;;;;;17.67;16.40;;;19.60;99.90;;;;;;5015545;28;20029;-77
2023/08/16 07:21:36;;;;;;;14.20;13.10;;;19.70;99.90;;;;;;5015310;28;20045;-77
2023/08/16 07:24:02;;;;;;;11.10;10.30;;;19.80;99.90;;;;;;5015239;28;20037;-76
2023/08/16 07:26:28;;;;;;;11.70;10.90;;;19.80;99.90;;;;;;5014597;28;20502;-76
2023/08/16 07:28:54;;;;;;;11.93;11.05;;;19.80;99.90;;;;;;5014325;28;20037;-76
2023/08/16 07:31:20;;;;;;;11.65;10.80;;;19.90;99.90;;;;;;5014486;28;20418;-77
2023/08/16 07:33:46;;;;;;;11.60;10.85;;;19.90;99.90;;;;;;5014056;28;20030;-76
2023/08/16 07:36:12;;;;;;;9.80;9.10;;;20.00;99.90;;;;;;5015055;28;20391;-76
2023/08/16 07:38:38;;;;;;;11.25;10.38;;;20.20;99.90;;;;;;5015122;28;20026;-77
2023/08/16 07:41:05;;;;;;;12.20;11.30;;;20.30;99.90;;;;;;5014766;28;20042;-77
2023/08/16 07:43:31;;;;;;;15.85;14.40;;;20.50;99.90;;;;;;5015400;28;20403;-76
2023/08/16 07:45:57;;;;;;;19.98;18.77;;;20.80;99.90;;;;;;5014098;28;20034;-78
2023/08/16 07:48:23;;;;;;;21.83;20.30;;;21.00;99.90;;;;;;5015104;28;20395;-77
2023/08/16 07:50:50;;;;;;;25.83;24.17;;;21.10;99.90;;;;;;5014263;28;20414;-77
2023/08/16 07:53:16;;;;;;;23.42;21.90;;;21.40;99.90;;;;;;5013105;28;20049;-77
2023/08/16 07:55:42;;;;;;;18.65;17.48;;;21.60;99.90;;;;;;5014196;28;20025;-77
2023/08/16 07:58:08;;;;;;;19.63;18.33;;;21.60;99.90;;;;;;5014777;28;20053;-78
2023/08/16 08:00:34;;;;;;;18.80;17.60;;;21.70;99.90;;;;;;5014107;28;20353;-78
2023/08/16 08:03:01;;;;;;;18.38;17.35;;;21.60;99.90;;;;;;5014847;28;20517;-77
2023/08/16 08:05:28;;;;;;;17.35;16.15;;;21.60;99.90;;;;;;5014422;28;20471;-77
2023/08/16 08:07:54;;;;;;;19.20;17.45;;;21.60;99.90;;;;;;5014496;28;20407;-76
2023/08/16 08:10:21;;;;;;;16.90;15.75;;;21.50;99.90;;;;;;5013857;28;20037;-77
2023/08/16 08:12:47;;;;;;;17.17;15.75;;;21.50;99.90;;;;;;5014624;28;20029;-77
2023/08/16 08:15:13;;;;;;;16.20;14.55;;;21.60;99.90;;;;;;5013657;28;20034;-77
2023/08/16 08:17:40;;;;;;;16.27;15.18;;;21.60;99.90;;;;;;5014352;28;20387;-77
2023/08/16 08:20:07;;;;;;;17.08;15.77;;;21.70;99.90;;;;;;5014518;28;20475;-77
2023/08/16 08:22:34;;;;;;;16.20;14.60;;;21.80;99.90;;;;;;5012545;28;20399;-77
2023/08/16 08:25:01;;;;;;;15.65;14.65;;;21.90;99.90;;;;;;5012580;28;20093;-77
2023/08/16 08:27:27;;;;;;;16.98;15.70;;;22.00;99.90;;;;;;5012128;28;20053;-77
2023/08/16 08:29:53;;;;;;;17.63;16.35;;;22.10;99.90;;;;;;5013713;28;20026;-76
2023/08/16 08:32:19;;;;;;;18.92;17.63;;;22.20;99.90;;;;;;5013322;28;20046;-77
2023/08/16 08:34:45;;;;;;;23.70;21.80;;;22.40;99.90;;;;;;5014018;28;20030;-78
2023/08/16 08:37:11;;;;;;;27.80;26.15;;;22.70;99.90;;;;;;5013685;28;20038;-77
2023/08/16 08:39:37;;;;;;;35.58;33.67;;;23.00;99.90;;;;;;5013798;28;20041;-77
2023/08/16 08:42:04;;;;;;;28.65;27.08;;;23.30;99.90;;;;;;5013652;28;20391;-76
2023/08/16 08:44:30;;;;;;;43.63;41.20;;;23.40;99.90;;;;;;5012721;28;20029;-77
2023/08/16 08:46:56;;;;;;;46.92;44.13;;;23.40;99.90;;;;;;5013087;28;20490;-77
2023/08/16 08:49:22;;;;;;;49.17;46.58;;;23.60;99.90;;;;;;5012342;28;20034;-77
2023/08/16 08:51:49;;;;;;;45.38;42.88;;;23.70;99.90;;;;;;5011887;28;20487;-77
2023/08/16 08:54:15;;;;;;;48.17;45.60;;;23.70;99.90;;;;;;5012417;28;20459;-77
2023/08/16 08:56:41;;;;;;;39.88;37.67;;;23.90;99.90;;;;;;5013337;28;20034;-77
2023/08/16 08:59:07;;;;;;;46.55;43.85;;;24.00;99.90;;;;;;5012402;28;20478;-77
2023/08/16 09:01:34;;;;;;;40.97;38.67;;;24.20;99.90;;;;;;5011599;28;20049;-77
2023/08/16 09:04:01;;;;;;;42.17;39.47;;;24.50;99.90;;;;;;5013352;28;20035;-78
2023/08/16 09:06:27;;;;;;;43.22;40.90;;;24.60;99.90;;;;;;5013092;28;20053;-77
2023/08/16 09:08:53;;;;;;;55.75;52.65;;;24.80;99.90;;;;;;5011893;28;20064;-77
2023/08/16 09:11:19;;;;;;;57.95;54.30;;;24.80;99.90;;;;;;5013111;28;20608;-78
2023/08/16 09:13:45;;;;;;;50.55;47.70;;;24.60;99.90;;;;;;5013653;28;20057;-77
2023/08/16 09:16:11;;;;;;;56.05;52.97;;;24.60;99.90;;;;;;5013092;28;20040;-77
2023/08/16 09:18:44;;;;;;;45.05;42.47;;;24.70;99.90;;;;;;5013244;28;20038;-77
2023/08/16 09:21:11;;;;;;;49.92;47.13;;;24.90;99.90;;;;;;5011884;28;20522;-77
2023/08/16 09:23:37;;;;;;;62.78;59.55;;;25.10;99.90;;;;;;5012119;28;20057;-77
2023/08/16 09:26:03;;;;;;;71.63;67.75;;;25.20;99.90;;;;;;5012724;28;20030;-76
2023/08/16 09:28:30;;;;;;;76.88;72.88;;;25.30;99.90;;;;;;5011798;28;20034;-75
2023/08/16 09:30:56;;;;;;;91.07;86.50;;;25.40;99.90;;;;;;5012125;28;20038;-77
2023/08/16 09:33:24;;;;;;;60.50;57.22;;;25.30;99.90;;;;;;5012986;28;20391;-77
2023/08/16 09:35:51;;;;;;;60.90;57.45;;;25.20;99.90;;;;;;5012196;28;20049;-77
2023/08/16 09:38:20;;;;;;;80.07;75.75;;;25.10;99.90;;;;;;5013456;28;20042;-77
2023/08/16 09:40:48;;;;;;;90.45;85.72;;;25.20;99.90;;;;;;5012457;28;20041;-78
2023/08/16 09:43:14;;;;;;;74.03;70.07;;;25.50;99.90;;;;;;5013027;28;20030;-77
2023/08/16 09:45:40;;;;;;;63.55;59.72;;;25.60;99.90;;;;;;5012180;28;20037;-77
2023/08/16 09:48:08;;;;;;;68.60;64.97;;;25.40;99.90;;;;;;5012936;28;20042;-77
2023/08/16 09:50:35;;;;;;;57.83;54.72;;;25.60;99.90;;;;;;5011886;28;20054;-77
2023/08/16 09:53:04;;;;;;;53.42;50.58;;;25.50;99.90;;;;;;5012818;28;20406;-76
2023/08/16 09:55:32;;;;;;;48.55;45.78;;;25.40;99.90;;;;;;5012659;28;20050;-77
2023/08/16 09:57:58;;;;;;;51.90;48.75;;;25.40;99.90;;;;;;5012643;28;20052;-77
2023/08/16 10:00:28;;;;;;;55.03;51.72;;;25.40;99.90;;;;;;5011984;28;20037;-77
2023/08/16 10:02:54;;;;;;;53.00;50.10;;;25.40;99.90;;;;;;5012111;28;20042;-77
2023/08/16 10:05:21;;;;;;;51.55;48.90;;;25.30;99.90;;;;;;5012026;28;20037;-77
2023/08/16 10:07:48;;;;;;;52.45;49.58;;;25.40;99.90;;;;;;5012589;28;20471;-77
2023/08/16 10:10:14;;;;;;;49.15;46.05;;;25.50;99.90;;;;;;5012152;28;20058;-77
2023/08/16 10:12:41;;;;;;;52.72;49.92;;;25.60;99.90;;;;;;5012591;28;20029;-77
2023/08/16 10:15:09;;;;;;;52.65;49.75;;;25.70;99.90;;;;;;5012348;28;20034;-76
2023/08/16 10:17:39;;;;;;;58.40;55.42;;;25.90;99.90;;;;;;5012019;28;20038;-77
2023/08/16 10:20:10;;;;;;;;;;;26.10;99.90;;;;;;5012635;28;20662;-77
2023/08/16 10:22:41;;;;;;;54.92;51.60;;;26.40;99.90;;;;;;5012246;28;19909;-77
2023/08/16 10:25:12;;;;;;;67.80;64.22;;;26.50;99.90;;;;;;5011377;28;20029;-76
2023/08/16 10:27:39;;;;;;;53.90;51.00;;;26.50;99.90;;;;;;4992941;28;20083;-76
2023/08/16 10:30:06;;;;;;;43.60;41.13;;;26.50;99.90;;;;;;4990965;28;20033;-77
2023/08/16 10:32:32;;;;;;;51.42;48.63;;;26.50;99.90;;;;;;5010515;28;20037;-77
2023/08/16 10:34:59;;;;;;;51.10;48.10;;;26.60;99.90;;;;;;5010762;28;20375;-77
2023/08/16 10:37:26;;;;;;;56.22;53.00;;;26.80;99.90;;;;;;5012095;28;20391;-78
2023/08/16 10:39:52;;;;;;;54.45;51.47;;;27.00;99.90;;;;;;5012662;28;20038;-76
2023/08/16 10:42:18;;;;;;;60.67;57.47;;;27.10;99.90;;;;;;5012136;28;20052;-77
2023/08/16 10:44:51;;;;;;;64.53;61.03;;;27.20;99.90;;;;;;5012209;28;20026;-77
2023/08/16 10:47:29;;;;;;;79.28;75.10;;;27.30;99.90;;;;;;5011951;28;20049;-77
2023/08/16 10:49:56;;;;;;;164.38;156.25;;;27.30;99.90;;;;;;5012134;28;20038;-77
2023/08/16 10:52:29;;;;;;;94.60;89.88;;;27.00;99.90;;;;;;5010933;28;20046;-77
2023/08/16 10:54:55;;;;;;;128.82;122.20;;;27.00;99.90;;;;;;5012286;28;20494;-78
2023/08/16 10:57:27;;;;;;;110.80;105.15;;;26.80;99.90;;;;;;5011806;28;20042;-77
2023/08/16 11:00:07;;;;;;;77.13;73.15;;;26.80;99.90;;;;;;5012122;28;20030;-77
2023/08/16 11:02:35;;;;;;;66.75;63.33;;;26.90;99.90;;;;;;5010727;28;20030;-77
2023/08/16 11:05:01;;;;;;;97.20;91.38;;;27.10;99.90;;;;;;5015162;28;20034;-76
2023/08/16 11:07:31;;;;;;;148.65;141.30;;;27.20;99.90;;;;;;5015589;28;20033;-77
2023/08/16 11:10:00;;;;;;;196.13;186.57;;;27.40;99.90;;;;;;5015762;28;20486;-77
2023/08/16 11:12:32;;;;;;;186.85;177.23;;;27.50;99.90;;;;;;5015423;28;20050;-77
2023/08/16 11:14:58;;;;;;;138.43;131.32;;;27.70;99.90;;;;;;5014537;28;20022;-77
2023/08/16 11:17:26;;;;;;;169.68;161.23;;;27.80;99.90;;;;;;5014431;28;20050;-77
2023/08/16 11:19:55;;;;;;;167.38;158.98;;;28.00;99.90;;;;;;5014433;28;20034;-77
2023/08/16 11:22:22;;;;;;;171.65;163.13;;;28.10;99.90;;;;;;5015129;28;20034;-77
2023/08/16 11:24:49;;;;;;;252.63;240.30;;;28.20;99.90;;;;;;5015651;28;20040;-78
2023/08/16 11:27:22;;;;;;;112.10;106.25;;;28.40;99.90;;;;;;5015576;28;20044;-77
2023/08/16 11:29:52;;;;;;;138.85;131.90;;;28.50;99.90;;;;;;5015733;28;20049;-77
2023/08/16 11:32:37;;;;;;;132.40;125.97;;;28.50;99.90;;;;;;5012694;28;20046;-77
2023/08/16 11:35:11;;;;;;;142.93;135.82;;;28.20;99.90;;;;;;5014343;28;20038;-77
2023/08/16 11:37:40;;;;;;;142.35;135.23;;;27.70;99.90;;;;;;5015675;28;20056;-78
2023/08/16 11:40:10;;;;;;;147.25;139.90;;;27.50;99.90;;;;;;5015579;28;20050;-77
2023/08/16 11:42:36;;;;;;;142.27;135.13;;;27.50;99.90;;;;;;5013938;28;20045;-77
2023/08/16 11:45:16;;;;;;;183.07;174.18;;;27.60;99.90;;;;;;5014431;28;20025;-70
2023/08/16 11:47:42;;;;;;;179.73;170.85;;;27.70;99.90;;;;;;5033529;28;20394;-77
2023/08/16 11:50:09;;;;;;;160.00;151.88;;;27.50;99.90;;;;;;5033618;28;20037;-77
2023/08/16 11:52:35;;;;;;;163.05;154.90;;;27.50;99.90;;;;;;5033298;28;20498;-78
2023/08/16 11:55:06;;;;;;;165.90;157.38;;;27.50;99.90;;;;;;5034460;28;20030;-76
2023/08/16 11:57:33;;;;;;;164.13;155.98;;;27.60;99.90;;;;;;5034638;28;20037;-78
2023/08/16 12:00:05;;;;;;;164.00;155.88;;;27.50;99.90;;;;;;5035226;28;20562;-77
2023/08/16 12:02:31;;;;;;;168.50;159.45;;;27.60;99.90;;;;;;5033461;28;20041;-77
2023/08/16 12:04:57;;;;;;;198.07;188.40;;;27.80;99.90;;;;;;5034267;28;20036;-77
2023/08/16 12:07:24;;;;;;;231.23;220.07;;;28.10;99.90;;;;;;5034576;28;20534;-77
2023/08/16 12:09:50;;;;;;;183.57;174.63;;;28.00;99.90;;;;;;5034257;28;20044;-76
2023/08/16 12:12:16;;;;;;;230.75;219.50;;;28.00;99.90;;;;;;5034186;28;20054;-77
2023/08/16 12:14:42;;;;;;;245.75;233.85;;;28.00;99.90;;;;;;5033765;28;20033;-77
2023/08/16 12:17:08;;;;;;;206.70;196.45;;;28.30;99.90;;;;;;5033033;28;20429;-77
2023/08/16 12:19:34;;;;;;;228.52;217.45;;;28.50;99.90;;;;;;5034134;28;20363;-78
2023/08/16 12:22:00;;;;;;;225.23;214.30;;;28.50;99.90;;;;;;5033655;28;20053;-79
2023/08/16 12:24:27;;;;;;;201.52;191.65;;;28.20;99.90;;;;;;5033939;28;20092;-78